sensor_id;sensor_type;location;lat;lon;timestamp;temperature;humidity
76936;DHT22;65881;52.438;16.744;2023-07-29T00:00:47;16.40;99.90
76936;DHT22;65881;52.438;16.744;2023-07-29T00:03:13;16.40;99.90
76936;DHT22;65881;52.438;16.744;2023-07-29T00:05:39;16.40;99.90
76936;DHT22;65881;52.438;16.744;2023-07-29T00:08:05;16.30;99.90
76936;DHT22;65881;52.438;16.744;2023-07-29T00:10:32;16.20;99.90
76936;DHT22;65881;52.438;16.744;2023-07-29T00:12:58;16.20;99.90
76936;DHT22;65881;52.438;16.744;2023-07-29T00:15:24;16.20;99.90
76936;DHT22;65881;52.438;16.744;2023-07-29T00:17:49;16.10;99.90
76936;DHT22;65881;52.438;16.744;2023-07-29T00:20:15;16.20;99.90
76936;DHT22;65881;52.438;16.744;2023-07-29T00:22:41;16.20;99.90
76936;DHT22;65881;52.438;16.744;2023-07-29T00:25:07;16.20;99.90
76936;DHT22;65881;52.438;16.744;2023-07-29T00:27:33;16.20;99.90
76936;DHT22;65881;52.438;16.744;2023-07-29T00:29:59;16.20;99.90
76936;DHT22;65881;52.438;16.744;2023-07-29T00:32:25;16.20;99.90
76936;DHT22;65881;52.438;16.744;2023-07-29T00:34:50;16.20;99.90
76936;DHT22;65881;52.438;16.744;2023-07-29T00:37:16;16.20;99.90
76936;DHT22;65881;52.438;16.744;2023-07-29T00:39:42;16.20;99.90
76936;DHT22;65881;52.438;16.744;2023-07-29T00:42:08;16.20;99.90
76936;DHT22;65881;52.438;16.744;2023-07-29T00:44:34;16.20;99.90
76936;DHT22;65881;52.438;16.744;2023-07-29T00:47:02;16.20;99.90
76936;DHT22;65881;52.438;16.744;2023-07-29T00:49:29;16.20;99.90
76936;DHT22;65881;52.438;16.744;2023-07-29T00:51:55;16.10;99.90
76936;DHT22;65881;52.438;16.744;2023-07-29T00:54:20;16.10;99.90
76936;DHT22;65881;52.438;16.744;2023-07-29T00:56:46;16.10;99.90
76936;DHT22;65881;52.438;16.744;2023-07-29T00:59:12;16.10;99.90
76936;DHT22;65881;52.438;16.744;2023-07-29T01:01:38;16.10;99.90
76936;DHT22;65881;52.438;16.744;2023-07-29T01:04:04;16.00;99.90
76936;DHT22;65881;52.438;16.744;2023-07-29T01:12:24;15.90;99.90
76936;DHT22;65881;52.438;16.744;2023-07-29T01:14:59;15.80;99.90
76936;DHT22;65881;52.438;16.744;2023-07-29T01:20:17;15.80;99.90
76936;DHT22;65881;52.438;16.744;2023-07-29T01:22:46;15.80;99.90
76936;DHT22;65881;52.438;16.744;2023-07-29T01:25:12;15.80;99.90
76936;DHT22;65881;52.438;16.744;2023-07-29T01:27:39;15.70;99.90
76936;DHT22;65881;52.438;16.744;2023-07-29T01:30:05;15.70;99.90
76936;DHT22;65881;52.438;16.744;2023-07-29T01:32:54;15.60;99.90
76936;DHT22;65881;52.438;16.744;2023-07-29T01:35:33;15.60;99.90
76936;DHT22;65881;52.438;16.744;2023-07-29T01:38:14;15.60;99.90
76936;DHT22;65881;52.438;16.744;2023-07-29T01:40:42;15.50;99.90
76936;DHT22;65881;52.438;16.744;2023-07-29T01:43:10;15.50;99.90
76936;DHT22;65881;52.438;16.744;2023-07-29T01:45:36;15.50;99.90
76936;DHT22;65881;52.438;16.744;2023-07-29T01:48:05;15.50;99.90
76936;DHT22;65881;52.438;16.744;2023-07-29T01:50:31;15.50;99.90
76936;DHT22;65881;52.438;16.744;2023-07-29T01:52:58;15.40;99.90
76936;DHT22;65881;52.438;16.744;2023-07-29T01:55:23;15.40;99.90
76936;DHT22;65881;52.438;16.744;2023-07-29T01:57:49;15.30;99.90
76936;DHT22;65881;52.438;16.744;2023-07-29T02:00:16;15.30;99.90
76936;DHT22;65881;52.438;16.744;2023-07-29T02:02:43;15.20;99.90
76936;DHT22;65881;52.438;16.744;2023-07-29T02:05:08;15.30;99.90
76936;DHT22;65881;52.438;16.744;2023-07-29T02:07:34;15.20;99.90
76936;DHT22;65881;52.438;16.744;2023-07-29T02:09:59;15.10;99.90
76936;DHT22;65881;52.438;16.744;2023-07-29T02:12:25;15.00;99.90
76936;DHT22;65881;52.438;16.744;2023-07-29T02:14:51;15.10;99.90
76936;DHT22;65881;52.438;16.744;2023-07-29T02:17:17;15.00;99.90
76936;DHT22;65881;52.438;16.744;2023-07-29T02:19:42;15.00;99.90
76936;DHT22;65881;52.438;16.744;2023-07-29T02:22:08;15.00;99.90
76936;DHT22;65881;52.438;16.744;2023-07-29T02:24:34;15.00;99.90
76936;DHT22;65881;52.438;16.744;2023-07-29T02:26:59;14.90;99.90
76936;DHT22;65881;52.438;16.744;2023-07-29T02:29:25;14.90;99.90
76936;DHT22;65881;52.438;16.744;2023-07-29T02:31:51;14.80;99.90
76936;DHT22;65881;52.438;16.744;2023-07-29T02:34:16;14.80;99.90
76936;DHT22;65881;52.438;16.744;2023-07-29T02:36:42;14.70;99.90
76936;DHT22;65881;52.438;16.744;2023-07-29T02:39:08;14.70;99.90
76936;DHT22;65881;52.438;16.744;2023-07-29T02:41:33;14.60;99.90
76936;DHT22;65881;52.438;16.744;2023-07-29T02:43:59;14.60;99.90
76936;DHT22;65881;52.438;16.744;2023-07-29T02:46:25;14.60;99.90
76936;DHT22;65881;52.438;16.744;2023-07-29T02:48:50;14.70;99.90
76936;DHT22;65881;52.438;16.744;2023-07-29T02:51:16;14.80;99.90
76936;DHT22;65881;52.438;16.744;2023-07-29T02:53:42;14.80;99.90
76936;DHT22;65881;52.438;16.744;2023-07-29T02:56:08;14.90;99.90
76936;DHT22;65881;52.438;16.744;2023-07-29T02:58:36;14.80;99.90
76936;DHT22;65881;52.438;16.744;2023-07-29T03:01:09;14.80;99.90
76936;DHT22;65881;52.438;16.744;2023-07-29T03:03:35;14.80;99.90
76936;DHT22;65881;52.438;16.744;2023-07-29T03:06:06;14.80;99.90
76936;DHT22;65881;52.438;16.744;2023-07-29T03:08:32;14.80;99.90
76936;DHT22;65881;52.438;16.744;2023-07-29T03:11:04;14.70;99.90
76936;DHT22;65881;52.438;16.744;2023-07-29T03:13:30;14.80;99.90
76936;DHT22;65881;52.438;16.744;2023-07-29T03:16:11;14.70;99.90
76936;DHT22;65881;52.438;16.744;2023-07-29T03:18:37;14.70;99.90
76936;DHT22;65881;52.438;16.744;2023-07-29T03:21:03;14.70;99.90
76936;DHT22;65881;52.438;16.744;2023-07-29T03:23:30;14.60;99.90
76936;DHT22;65881;52.438;16.744;2023-07-29T03:25:57;14.60;99.90
76936;DHT22;65881;52.438;16.744;2023-07-29T03:28:28;14.60;99.90
76936;DHT22;65881;52.438;16.744;2023-07-29T03:30:57;14.60;99.90
76936;DHT22;65881;52.438;16.744;2023-07-29T03:33:25;14.60;99.90
76936;DHT22;65881;52.438;16.744;2023-07-29T03:35:51;14.70;99.90
76936;DHT22;65881;52.438;16.744;2023-07-29T03:38:17;14.70;99.90
76936;DHT22;65881;52.438;16.744;2023-07-29T03:40:43;14.70;99.90
76936;DHT22;65881;52.438;16.744;2023-07-29T03:43:12;14.70;99.90
76936;DHT22;65881;52.438;16.744;2023-07-29T03:45:40;14.70;99.90
76936;DHT22;65881;52.438;16.744;2023-07-29T03:48:06;14.70;99.90
76936;DHT22;65881;52.438;16.744;2023-07-29T03:50:34;14.80;99.90
76936;DHT22;65881;52.438;16.744;2023-07-29T03:53:05;14.80;99.90
76936;DHT22;65881;52.438;16.744;2023-07-29T03:55:32;14.80;99.90
76936;DHT22;65881;52.438;16.744;2023-07-29T03:57:58;14.80;99.90
76936;DHT22;65881;52.438;16.744;2023-07-29T04:00:24;14.90;99.90
76936;DHT22;65881;52.438;16.744;2023-07-29T04:02:50;14.80;99.90
76936;DHT22;65881;52.438;16.744;2023-07-29T04:05:18;14.90;99.90
76936;DHT22;65881;52.438;16.744;2023-07-29T04:07:48;14.90;99.90
76936;DHT22;65881;52.438;16.744;2023-07-29T04:10:14;15.00;99.90
76936;DHT22;65881;52.438;16.744;2023-07-29T04:12:40;15.00;99.90
76936;DHT22;65881;52.438;16.744;2023-07-29T04:15:06;15.10;99.90
76936;DHT22;65881;52.438;16.744;2023-07-29T04:17:32;15.20;99.90
76936;DHT22;65881;52.438;16.744;2023-07-29T04:19:57;15.20;99.90
76936;DHT22;65881;52.438;16.744;2023-07-29T04:22:23;15.10;99.90
76936;DHT22;65881;52.438;16.744;2023-07-29T04:24:49;15.10;99.90
76936;DHT22;65881;52.438;16.744;2023-07-29T04:27:15;15.10;99.90
76936;DHT22;65881;52.438;16.744;2023-07-29T04:29:41;15.20;99.90
76936;DHT22;65881;52.438;16.744;2023-07-29T04:34:46;15.20;99.90
76936;DHT22;65881;52.438;16.744;2023-07-29T04:37:11;15.20;99.90
76936;DHT22;65881;52.438;16.744;2023-07-29T04:39:37;15.20;99.90
76936;DHT22;65881;52.438;16.744;2023-07-29T04:42:03;15.20;99.90
76936;DHT22;65881;52.438;16.744;2023-07-29T04:44:29;15.30;99.90
76936;DHT22;65881;52.438;16.744;2023-07-29T04:46:55;15.30;99.90
76936;DHT22;65881;52.438;16.744;2023-07-29T04:49:20;15.40;99.90
76936;DHT22;65881;52.438;16.744;2023-07-29T04:51:49;15.50;99.90
76936;DHT22;65881;52.438;16.744;2023-07-29T04:54:35;15.50;99.90
76936;DHT22;65881;52.438;16.744;2023-07-29T04:57:01;15.60;99.90
76936;DHT22;65881;52.438;16.744;2023-07-29T04:59:26;15.60;99.90
76936;DHT22;65881;52.438;16.744;2023-07-29T05:01:52;15.70;99.90
76936;DHT22;65881;52.438;16.744;2023-07-29T05:04:19;15.80;99.90
76936;DHT22;65881;52.438;16.744;2023-07-29T05:06:45;15.80;99.90
76936;DHT22;65881;52.438;16.744;2023-07-29T05:09:15;15.90;99.90
76936;DHT22;65881;52.438;16.744;2023-07-29T05:11:41;16.00;99.90
76936;DHT22;65881;52.438;16.744;2023-07-29T05:14:07;16.00;99.90
76936;DHT22;65881;52.438;16.744;2023-07-29T05:16:34;16.00;99.90
76936;DHT22;65881;52.438;16.744;2023-07-29T05:19:00;16.00;99.90
76936;DHT22;65881;52.438;16.744;2023-07-29T05:21:25;16.10;99.90
76936;DHT22;65881;52.438;16.744;2023-07-29T05:23:57;16.20;99.90
76936;DHT22;65881;52.438;16.744;2023-07-29T05:26:23;16.20;99.90
76936;DHT22;65881;52.438;16.744;2023-07-29T05:28:49;16.20;99.90
76936;DHT22;65881;52.438;16.744;2023-07-29T05:31:14;16.20;99.90
76936;DHT22;65881;52.438;16.744;2023-07-29T05:33:40;16.30;99.90
76936;DHT22;65881;52.438;16.744;2023-07-29T05:36:06;16.30;99.90
76936;DHT22;65881;52.438;16.744;2023-07-29T05:38:31;16.40;99.90
76936;DHT22;65881;52.438;16.744;2023-07-29T05:40:57;16.40;99.90
76936;DHT22;65881;52.438;16.744;2023-07-29T05:43:26;16.50;99.90
76936;DHT22;65881;52.438;16.744;2023-07-29T05:45:59;16.50;99.90
76936;DHT22;65881;52.438;16.744;2023-07-29T05:48:25;16.60;99.90
76936;DHT22;65881;52.438;16.744;2023-07-29T05:50:50;16.70;99.90
76936;DHT22;65881;52.438;16.744;2023-07-29T05:53:24;16.80;99.90
76936;DHT22;65881;52.438;16.744;2023-07-29T05:55:50;16.90;99.90
76936;DHT22;65881;52.438;16.744;2023-07-29T05:58:15;16.90;99.90
76936;DHT22;65881;52.438;16.744;2023-07-29T06:00:41;17.00;99.90
76936;DHT22;65881;52.438;16.744;2023-07-29T06:03:07;17.00;99.90
76936;DHT22;65881;52.438;16.744;2023-07-29T06:05:33;17.00;99.90
76936;DHT22;65881;52.438;16.744;2023-07-29T06:07:58;17.00;99.90
76936;DHT22;65881;52.438;16.744;2023-07-29T06:10:24;17.10;99.90
76936;DHT22;65881;52.438;16.744;2023-07-29T06:12:50;17.20;99.90
76936;DHT22;65881;52.438;16.744;2023-07-29T06:15:15;17.30;99.90
76936;DHT22;65881;52.438;16.744;2023-07-29T06:17:41;17.30;99.90
76936;DHT22;65881;52.438;16.744;2023-07-29T06:20:07;17.20;99.90
76936;DHT22;65881;52.438;16.744;2023-07-29T06:22:33;17.20;99.90
76936;DHT22;65881;52.438;16.744;2023-07-29T06:24:58;17.30;99.90
76936;DHT22;65881;52.438;16.744;2023-07-29T06:27:24;17.40;99.90
76936;DHT22;65881;52.438;16.744;2023-07-29T06:29:50;17.50;99.90
76936;DHT22;65881;52.438;16.744;2023-07-29T06:32:16;17.50;99.90
76936;DHT22;65881;52.438;16.744;2023-07-29T06:34:42;17.50;99.90
76936;DHT22;65881;52.438;16.744;2023-07-29T06:37:07;17.60;99.90
76936;DHT22;65881;52.438;16.744;2023-07-29T06:39:33;17.80;99.90
76936;DHT22;65881;52.438;16.744;2023-07-29T06:41:59;17.90;99.90
76936;DHT22;65881;52.438;16.744;2023-07-29T06:44:25;18.00;99.90
76936;DHT22;65881;52.438;16.744;2023-07-29T06:46:50;18.00;99.90
76936;DHT22;65881;52.438;16.744;2023-07-29T06:49:16;18.10;99.90
76936;DHT22;65881;52.438;16.744;2023-07-29T06:51:41;18.20;99.90
76936;DHT22;65881;52.438;16.744;2023-07-29T06:54:07;18.30;99.90
76936;DHT22;65881;52.438;16.744;2023-07-29T06:56:33;18.50;99.90
76936;DHT22;65881;52.438;16.744;2023-07-29T06:58:58;18.60;99.90
76936;DHT22;65881;52.438;16.744;2023-07-29T07:01:24;18.70;98.60
76936;DHT22;65881;52.438;16.744;2023-07-29T07:03:50;18.70;97.90
76936;DHT22;65881;52.438;16.744;2023-07-29T07:06:15;18.70;97.30
76936;DHT22;65881;52.438;16.744;2023-07-29T07:08:41;18.70;97.50
76936;DHT22;65881;52.438;16.744;2023-07-29T07:11:07;18.80;98.20
76936;DHT22;65881;52.438;16.744;2023-07-29T07:13:33;18.80;97.80
76936;DHT22;65881;52.438;16.744;2023-07-29T07:15:58;18.90;96.70
76936;DHT22;65881;52.438;16.744;2023-07-29T07:18:24;19.00;96.90
76936;DHT22;65881;52.438;16.744;2023-07-29T07:20:50;19.00;96.90
76936;DHT22;65881;52.438;16.744;2023-07-29T07:23:16;19.10;96.30
76936;DHT22;65881;52.438;16.744;2023-07-29T07:25:42;19.20;96.50
76936;DHT22;65881;52.438;16.744;2023-07-29T07:28:09;19.10;98.20
76936;DHT22;65881;52.438;16.744;2023-07-29T07:30:34;19.10;97.10
76936;DHT22;65881;52.438;16.744;2023-07-29T07:33:00;19.20;96.50
76936;DHT22;65881;52.438;16.744;2023-07-29T07:35:27;19.30;96.50
76936;DHT22;65881;52.438;16.744;2023-07-29T07:37:52;19.30;95.90
76936;DHT22;65881;52.438;16.744;2023-07-29T07:40:18;19.30;95.50
76936;DHT22;65881;52.438;16.744;2023-07-29T07:42:44;19.40;95.20
76936;DHT22;65881;52.438;16.744;2023-07-29T07:45:09;19.40;94.30
76936;DHT22;65881;52.438;16.744;2023-07-29T07:47:35;19.50;94.60
76936;DHT22;65881;52.438;16.744;2023-07-29T07:50:01;19.50;94.30
76936;DHT22;65881;52.438;16.744;2023-07-29T07:52:32;19.70;92.40
76936;DHT22;65881;52.438;16.744;2023-07-29T07:55:08;19.90;89.50
76936;DHT22;65881;52.438;16.744;2023-07-29T07:57:33;20.00;89.00
76936;DHT22;65881;52.438;16.744;2023-07-29T07:59:59;20.10;89.40
76936;DHT22;65881;52.438;16.744;2023-07-29T08:02:25;20.20;90.50
76936;DHT22;65881;52.438;16.744;2023-07-29T08:04:50;20.30;87.50
76936;DHT22;65881;52.438;16.744;2023-07-29T08:07:25;20.50;87.40
76936;DHT22;65881;52.438;16.744;2023-07-29T08:09:50;20.60;88.30
76936;DHT22;65881;52.438;16.744;2023-07-29T08:12:19;20.70;84.00
76936;DHT22;65881;52.438;16.744;2023-07-29T08:14:45;20.70;82.60
76936;DHT22;65881;52.438;16.744;2023-07-29T08:17:11;20.90;82.60
76936;DHT22;65881;52.438;16.744;2023-07-29T08:19:55;21.00;79.60
76936;DHT22;65881;52.438;16.744;2023-07-29T08:22:25;21.10;79.40
76936;DHT22;65881;52.438;16.744;2023-07-29T08:24:54;21.10;80.20
76936;DHT22;65881;52.438;16.744;2023-07-29T08:27:21;21.20;80.70
76936;DHT22;65881;52.438;16.744;2023-07-29T08:30:16;21.30;79.30
76936;DHT22;65881;52.438;16.744;2023-07-29T08:32:42;21.30;79.60
76936;DHT22;65881;52.438;16.744;2023-07-29T08:35:10;21.40;78.40
76936;DHT22;65881;52.438;16.744;2023-07-29T08:37:36;21.50;79.80
76936;DHT22;65881;52.438;16.744;2023-07-29T08:40:01;21.70;79.30
76936;DHT22;65881;52.438;16.744;2023-07-29T08:42:31;21.70;78.50
76936;DHT22;65881;52.438;16.744;2023-07-29T08:45:01;21.90;76.50
76936;DHT22;65881;52.438;16.744;2023-07-29T08:47:33;22.00;77.20
76936;DHT22;65881;52.438;16.744;2023-07-29T08:50:01;22.10;74.40
76936;DHT22;65881;52.438;16.744;2023-07-29T08:52:29;22.20;74.30
76936;DHT22;65881;52.438;16.744;2023-07-29T08:54:57;22.20;75.20
76936;DHT22;65881;52.438;16.744;2023-07-29T08:57:23;22.30;76.80
76936;DHT22;65881;52.438;16.744;2023-07-29T08:59:50;22.50;74.30
76936;DHT22;65881;52.438;16.744;2023-07-29T09:02:15;22.80;72.10
76936;DHT22;65881;52.438;16.744;2023-07-29T09:04:42;23.20;69.00
76936;DHT22;65881;52.438;16.744;2023-07-29T09:07:08;23.40;66.50
76936;DHT22;65881;52.438;16.744;2023-07-29T09:09:33;23.30;66.80
76936;DHT22;65881;52.438;16.744;2023-07-29T09:11:59;23.30;65.80
76936;DHT22;65881;52.438;16.744;2023-07-29T09:14:30;23.40;66.20
76936;DHT22;65881;52.438;16.744;2023-07-29T09:16:57;23.80;64.80
76936;DHT22;65881;52.438;16.744;2023-07-29T09:19:26;24.10;64.50
76936;DHT22;65881;52.438;16.744;2023-07-29T09:22:01;24.30;62.20
76936;DHT22;65881;52.438;16.744;2023-07-29T09:24:30;24.00;64.20
76936;DHT22;65881;52.438;16.744;2023-07-29T09:26:59;24.20;65.60
76936;DHT22;65881;52.438;16.744;2023-07-29T09:29:28;24.70;64.20
76936;DHT22;65881;52.438;16.744;2023-07-29T09:32:19;25.00;61.70
76936;DHT22;65881;52.438;16.744;2023-07-29T09:34:45;25.20;61.50
76936;DHT22;65881;52.438;16.744;2023-07-29T09:37:21;25.40;59.20
76936;DHT22;65881;52.438;16.744;2023-07-29T09:39:48;25.30;62.30
76936;DHT22;65881;52.438;16.744;2023-07-29T09:42:22;25.50;61.80
76936;DHT22;65881;52.438;16.744;2023-07-29T09:44:50;25.70;59.10
76936;DHT22;65881;52.438;16.744;2023-07-29T09:47:21;25.70;61.00
76936;DHT22;65881;52.438;16.744;2023-07-29T09:49:56;26.00;60.10
76936;DHT22;65881;52.438;16.744;2023-07-29T09:52:24;26.10;58.00
76936;DHT22;65881;52.438;16.744;2023-07-29T09:54:50;26.40;58.50
76936;DHT22;65881;52.438;16.744;2023-07-29T09:57:18;26.40;58.20
76936;DHT22;65881;52.438;16.744;2023-07-29T09:59:59;26.00;56.50
76936;DHT22;65881;52.438;16.744;2023-07-29T10:02:26;25.60;59.10
76936;DHT22;65881;52.438;16.744;2023-07-29T10:04:54;25.20;59.30
76936;DHT22;65881;52.438;16.744;2023-07-29T10:07:22;25.10;59.90
76936;DHT22;65881;52.438;16.744;2023-07-29T10:09:50;25.60;59.00
76936;DHT22;65881;52.438;16.744;2023-07-29T10:12:17;25.80;58.30
76936;DHT22;65881;52.438;16.744;2023-07-29T10:14:44;26.00;57.00
76936;DHT22;65881;52.438;16.744;2023-07-29T10:17:15;26.00;56.20
76936;DHT22;65881;52.438;16.744;2023-07-29T10:19:44;25.60;57.20
76936;DHT22;65881;52.438;16.744;2023-07-29T10:22:12;25.20;58.90
76936;DHT22;65881;52.438;16.744;2023-07-29T10:24:43;25.40;59.60
76936;DHT22;65881;52.438;16.744;2023-07-29T10:27:11;25.80;57.90
76936;DHT22;65881;52.438;16.744;2023-07-29T10:29:42;26.20;58.50
76936;DHT22;65881;52.438;16.744;2023-07-29T10:32:25;26.40;56.80
76936;DHT22;65881;52.438;16.744;2023-07-29T10:34:56;26.10;57.40
76936;DHT22;65881;52.438;16.744;2023-07-29T10:37:22;25.90;59.30
76936;DHT22;65881;52.438;16.744;2023-07-29T10:39:55;26.10;57.80
76936;DHT22;65881;52.438;16.744;2023-07-29T10:42:22;26.00;55.70
76936;DHT22;65881;52.438;16.744;2023-07-29T10:44:52;26.10;56.70
76936;DHT22;65881;52.438;16.744;2023-07-29T10:47:23;26.20;57.50
76936;DHT22;65881;52.438;16.744;2023-07-29T10:49:57;26.30;56.70
76936;DHT22;65881;52.438;16.744;2023-07-29T10:55:03;26.70;56.10
76936;DHT22;65881;52.438;16.744;2023-07-29T10:57:38;27.10;55.90
76936;DHT22;65881;52.438;16.744;2023-07-29T11:00:07;27.00;52.70
76936;DHT22;65881;52.438;16.744;2023-07-29T11:02:37;26.70;53.40
76936;DHT22;65881;52.438;16.744;2023-07-29T11:05:09;26.50;55.30
76936;DHT22;65881;52.438;16.744;2023-07-29T11:07:50;26.20;55.70
76936;DHT22;65881;52.438;16.744;2023-07-29T11:10:16;26.50;55.30
76936;DHT22;65881;52.438;16.744;2023-07-29T11:15:24;27.30;54.60
76936;DHT22;65881;52.438;16.744;2023-07-29T11:18:01;27.40;53.80
76936;DHT22;65881;52.438;16.744;2023-07-29T11:20:29;27.80;54.10
76936;DHT22;65881;52.438;16.744;2023-07-29T11:22:56;28.00;53.10
76936;DHT22;65881;52.438;16.744;2023-07-29T11:25:24;28.30;53.30
76936;DHT22;65881;52.438;16.744;2023-07-29T11:27:52;28.30;52.90
76936;DHT22;65881;52.438;16.744;2023-07-29T11:30:18;28.50;52.60
76936;DHT22;65881;52.438;16.744;2023-07-29T11:32:45;28.50;50.70
76936;DHT22;65881;52.438;16.744;2023-07-29T11:35:12;28.10;51.00
76936;DHT22;65881;52.438;16.744;2023-07-29T11:37:41;27.70;51.70
76936;DHT22;65881;52.438;16.744;2023-07-29T11:40:07;27.40;51.70
76936;DHT22;65881;52.438;16.744;2023-07-29T11:42:36;27.20;54.20
76936;DHT22;65881;52.438;16.744;2023-07-29T11:45:03;27.50;52.20
76936;DHT22;65881;52.438;16.744;2023-07-29T11:47:31;27.90;51.30
76936;DHT22;65881;52.438;16.744;2023-07-29T11:50:01;28.00;49.80
76936;DHT22;65881;52.438;16.744;2023-07-29T11:52:27;27.60;50.30
76936;DHT22;65881;52.438;16.744;2023-07-29T11:54:54;27.30;53.10
76936;DHT22;65881;52.438;16.744;2023-07-29T11:57:20;27.10;54.00
76936;DHT22;65881;52.438;16.744;2023-07-29T11:59:50;26.80;53.70
76936;DHT22;65881;52.438;16.744;2023-07-29T12:02:17;26.80;52.70
76936;DHT22;65881;52.438;16.744;2023-07-29T12:04:48;26.70;53.10
76936;DHT22;65881;52.438;16.744;2023-07-29T12:07:14;26.60;53.70
76936;DHT22;65881;52.438;16.744;2023-07-29T12:09:47;26.80;54.80
76936;DHT22;65881;52.438;16.744;2023-07-29T12:12:15;27.00;54.70
76936;DHT22;65881;52.438;16.744;2023-07-29T12:14:48;26.70;54.50
76936;DHT22;65881;52.438;16.744;2023-07-29T12:17:15;26.60;54.80
76936;DHT22;65881;52.438;16.744;2023-07-29T12:19:42;26.40;55.00
76936;DHT22;65881;52.438;16.744;2023-07-29T12:22:09;26.30;56.00
76936;DHT22;65881;52.438;16.744;2023-07-29T12:24:40;26.40;56.20
76936;DHT22;65881;52.438;16.744;2023-07-29T12:27:13;26.50;55.90
76936;DHT22;65881;52.438;16.744;2023-07-29T12:29:44;26.30;56.20
76936;DHT22;65881;52.438;16.744;2023-07-29T12:32:10;26.20;55.70
76936;DHT22;65881;52.438;16.744;2023-07-29T12:34:37;26.10;56.00
76936;DHT22;65881;52.438;16.744;2023-07-29T12:37:05;26.00;56.90
76936;DHT22;65881;52.438;16.744;2023-07-29T12:39:34;26.00;56.60
76936;DHT22;65881;52.438;16.744;2023-07-29T12:42:01;25.90;57.70
76936;DHT22;65881;52.438;16.744;2023-07-29T12:44:32;26.00;58.00
76936;DHT22;65881;52.438;16.744;2023-07-29T12:46:58;26.00;56.90
76936;DHT22;65881;52.438;16.744;2023-07-29T12:49:24;26.10;54.40
76936;DHT22;65881;52.438;16.744;2023-07-29T12:51:57;26.10;55.40
76936;DHT22;65881;52.438;16.744;2023-07-29T12:54:23;26.00;55.50
76936;DHT22;65881;52.438;16.744;2023-07-29T12:56:49;26.00;55.80
76936;DHT22;65881;52.438;16.744;2023-07-29T12:59:15;26.10;56.20
76936;DHT22;65881;52.438;16.744;2023-07-29T13:01:40;26.20;57.40
76936;DHT22;65881;52.438;16.744;2023-07-29T13:04:06;26.40;56.60
76936;DHT22;65881;52.438;16.744;2023-07-29T13:06:32;26.50;56.50
76936;DHT22;65881;52.438;16.744;2023-07-29T13:08:58;26.70;55.80
76936;DHT22;65881;52.438;16.744;2023-07-29T13:11:23;27.00;54.10
76936;DHT22;65881;52.438;16.744;2023-07-29T13:13:49;27.10;53.30
76936;DHT22;65881;52.438;16.744;2023-07-29T13:16:15;27.20;53.00
76936;DHT22;65881;52.438;16.744;2023-07-29T13:18:43;27.30;52.80
76936;DHT22;65881;52.438;16.744;2023-07-29T13:21:09;27.50;52.80
76936;DHT22;65881;52.438;16.744;2023-07-29T13:23:35;27.60;52.10
76936;DHT22;65881;52.438;16.744;2023-07-29T13:26:01;27.50;51.30
76936;DHT22;65881;52.438;16.744;2023-07-29T13:28:28;27.60;51.60
76936;DHT22;65881;52.438;16.744;2023-07-29T13:30:53;27.50;51.30
76936;DHT22;65881;52.438;16.744;2023-07-29T13:33:19;27.40;52.50
76936;DHT22;65881;52.438;16.744;2023-07-29T13:35:45;27.40;51.20
76936;DHT22;65881;52.438;16.744;2023-07-29T13:38:10;27.20;52.50
76936;DHT22;65881;52.438;16.744;2023-07-29T13:40:37;27.00;52.30
76936;DHT22;65881;52.438;16.744;2023-07-29T13:43:03;26.80;52.70
76936;DHT22;65881;52.438;16.744;2023-07-29T13:45:28;26.50;53.30
76936;DHT22;65881;52.438;16.744;2023-07-29T13:47:54;26.40;54.00
76936;DHT22;65881;52.438;16.744;2023-07-29T13:50:20;26.20;57.30
76936;DHT22;65881;52.438;16.744;2023-07-29T13:52:50;25.60;62.30
76936;DHT22;65881;52.438;16.744;2023-07-29T13:55:19;25.00;66.30
76936;DHT22;65881;52.438;16.744;2023-07-29T13:57:44;24.50;67.90
76936;DHT22;65881;52.438;16.744;2023-07-29T14:00:10;23.30;66.40
76936;DHT22;65881;52.438;16.744;2023-07-29T14:02:36;21.70;68.70
76936;DHT22;65881;52.438;16.744;2023-07-29T14:05:02;21.00;71.70
76936;DHT22;65881;52.438;16.744;2023-07-29T14:07:27;20.50;75.80
76936;DHT22;65881;52.438;16.744;2023-07-29T14:09:53;20.10;78.60
76936;DHT22;65881;52.438;16.744;2023-07-29T14:12:19;20.10;78.40
76936;DHT22;65881;52.438;16.744;2023-07-29T14:14:44;20.00;81.00
76936;DHT22;65881;52.438;16.744;2023-07-29T14:17:10;20.30;80.60
76936;DHT22;65881;52.438;16.744;2023-07-29T14:19:36;20.50;81.40
76936;DHT22;65881;52.438;16.744;2023-07-29T14:22:02;20.80;80.10
76936;DHT22;65881;52.438;16.744;2023-07-29T14:24:28;21.20;80.70
76936;DHT22;65881;52.438;16.744;2023-07-29T14:26:54;21.50;81.20
76936;DHT22;65881;52.438;16.744;2023-07-29T14:29:19;21.70;80.20
76936;DHT22;65881;52.438;16.744;2023-07-29T14:31:45;22.00;80.50
76936;DHT22;65881;52.438;16.744;2023-07-29T14:34:11;22.30;79.30
76936;DHT22;65881;52.438;16.744;2023-07-29T14:36:37;22.50;77.90
76936;DHT22;65881;52.438;16.744;2023-07-29T14:39:03;22.70;78.50
76936;DHT22;65881;52.438;16.744;2023-07-29T14:41:30;23.00;76.70
76936;DHT22;65881;52.438;16.744;2023-07-29T14:43:56;23.30;72.30
76936;DHT22;65881;52.438;16.744;2023-07-29T14:46:22;23.50;75.20
76936;DHT22;65881;52.438;16.744;2023-07-29T14:48:47;23.80;73.20
76936;DHT22;65881;52.438;16.744;2023-07-29T14:51:14;24.00;69.90
76936;DHT22;65881;52.438;16.744;2023-07-29T14:53:39;24.00;68.20
76936;DHT22;65881;52.438;16.744;2023-07-29T14:56:05;24.20;69.60
76936;DHT22;65881;52.438;16.744;2023-07-29T14:58:31;24.20;67.60
76936;DHT22;65881;52.438;16.744;2023-07-29T15:00:57;24.20;67.20
76936;DHT22;65881;52.438;16.744;2023-07-29T15:03:23;24.20;67.40
76936;DHT22;65881;52.438;16.744;2023-07-29T15:05:49;24.10;69.30
76936;DHT22;65881;52.438;16.744;2023-07-29T15:08:15;24.20;70.10
76936;DHT22;65881;52.438;16.744;2023-07-29T15:10:44;24.40;69.00
76936;DHT22;65881;52.438;16.744;2023-07-29T15:13:10;24.70;69.10
76936;DHT22;65881;52.438;16.744;2023-07-29T15:15:36;24.90;68.20
76936;DHT22;65881;52.438;16.744;2023-07-29T15:18:01;25.00;66.90
76936;DHT22;65881;52.438;16.744;2023-07-29T15:20:27;25.00;65.40
76936;DHT22;65881;52.438;16.744;2023-07-29T15:22:52;24.80;66.20
76936;DHT22;65881;52.438;16.744;2023-07-29T15:25:18;24.70;66.40
76936;DHT22;65881;52.438;16.744;2023-07-29T15:27:44;24.40;67.60
76936;DHT22;65881;52.438;16.744;2023-07-29T15:30:11;24.20;68.40
76936;DHT22;65881;52.438;16.744;2023-07-29T15:32:38;24.10;68.50